Terminal Aerodrome Forecast
Issued by NWS

Current Version | Previous Version | Graphics & Text | Print | Product List | Glossary On
Versions: 1 2 3 4 5 6 7 8 9 10 11 12 13 14 15 16 17 18 19 20 21 22 23 24 25 26
000
FTUS41 KILN 160200 AAB
TAFLUK
TAF AMD
KLUK 160252Z 1603/1624 10008KT P6SM -SHRA OVC030
     FM160600 16008KT P6SM -SHRA OVC025
     FM161500 17010KT P6SM VCSH OVC020=

USA.gov is the U.S. government's official web portal to all federal, state and local government web resources and services.